Time;durP1;ratioP1;P1;durP2;ratioP2;P2;SDS_P1;SDS_P2;PMS_P1;PMS_P2;Temp;Humidity;BMP_temperature;BMP_pressure;BME280_temperature;BME280_humidity;BME280_pressure;Samples;Min_cycle;Max_cycle;Signal;HPM_P1;HPM_P2
2021/01/18 00:01:21;;;;;;;48.22;5.10;;;1.20;99.90;;;;;;5009324;28;20167;-80
2021/01/18 00:03:48;;;;;;;41.45;4.75;;;1.30;99.90;;;;;;5024170;28;20464;-85
2021/01/18 00:06:16;;;;;;;61.65;5.57;;;1.30;99.90;;;;;;5029001;28;20120;-80
2021/01/18 00:08:43;;;;;;;39.35;4.70;;;1.30;99.90;;;;;;5038479;28;20040;-80
2021/01/18 00:11:10;;;;;;;47.85;5.50;;;1.20;99.90;;;;;;5043024;28;20041;-82
2021/01/18 00:13:36;;;;;;;49.33;6.13;;;1.30;99.90;;;;;;5042445;28;20041;-80
2021/01/18 00:16:02;;;;;;;56.70;5.18;;;1.30;99.90;;;;;;5031687;28;20061;-82
2021/01/18 00:18:30;;;;;;;43.10;5.07;;;1.30;99.90;;;;;;5039985;28;20048;-80
2021/01/18 00:20:56;;;;;;;38.90;4.40;;;1.30;99.90;;;;;;5038199;28;20062;-82
2021/01/18 00:23:22;;;;;;;46.35;4.78;;;1.30;99.90;;;;;;5031867;28;20092;-83
2021/01/18 00:25:49;;;;;;;44.78;4.88;;;1.40;99.90;;;;;;5031030;28;20081;-81
2021/01/18 00:28:14;;;;;;;48.00;5.35;;;1.30;99.90;;;;;;5031652;28;20037;-81
2021/01/18 00:30:40;;;;;;;43.33;4.93;;;1.30;99.90;;;;;;5022198;28;20069;-80
2021/01/18 00:33:06;;;;;;;46.90;5.00;;;1.20;99.90;;;;;;5030783;28;20059;-82
2021/01/18 00:35:32;;;;;;;52.10;5.35;;;1.20;99.90;;;;;;5025338;28;20037;-82
2021/01/18 00:37:58;;;;;;;49.10;5.30;;;1.20;99.90;;;;;;5030246;28;20099;-82
2021/01/18 00:40:25;;;;;;;50.47;4.97;;;1.20;99.90;;;;;;5029502;28;20175;-83
2021/01/18 00:42:52;;;;;;;36.17;4.55;;;1.20;99.90;;;;;;5041334;28;20136;-82
2021/01/18 00:45:19;;;;;;;43.63;5.25;;;1.20;99.90;;;;;;5030661;28;20030;-82
2021/01/18 00:47:51;;;;;;;36.25;4.60;;;1.20;99.90;;;;;;5031999;28;20092;-81
2021/01/18 00:50:21;;;;;;;51.70;4.53;;;1.40;99.90;;;;;;5028245;28;20044;-82
2021/01/18 00:53:19;;;;;;;54.17;5.70;;;1.30;99.90;;;;;;5029279;28;20103;-82
2021/01/18 00:56:01;;;;;;;36.63;4.07;;;1.20;99.90;;;;;;5022713;28;20045;-81
2021/01/18 00:58:31;;;;;;;31.50;3.92;;;1.20;99.90;;;;;;5032146;28;20076;-83
2021/01/18 01:00:58;;;;;;;57.50;5.20;;;1.20;99.90;;;;;;5013814;28;20132;-82
2021/01/18 01:03:24;;;;;;;44.35;4.57;;;1.20;99.90;;;;;;5028599;28;20187;-82
2021/01/18 01:05:50;;;;;;;43.60;3.97;;;1.20;99.90;;;;;;5029633;28;20053;-84
2021/01/18 01:08:16;;;;;;;37.85;4.45;;;1.30;99.90;;;;;;5008252;28;20069;-81
2021/01/18 01:10:41;;;;;;;48.42;5.32;;;1.20;99.90;;;;;;5020992;28;20033;-82
2021/01/18 01:13:09;;;;;;;42.72;4.38;;;1.30;99.90;;;;;;5030567;28;20745;-80
2021/01/18 01:15:36;;;;;;;42.30;4.95;;;1.30;99.90;;;;;;5029119;28;20047;-79
2021/01/18 01:18:03;;;;;;;36.10;4.35;;;1.20;99.90;;;;;;5026083;28;20037;-80
2021/01/18 01:20:29;;;;;;;45.97;4.50;;;1.50;99.90;;;;;;5028189;28;20037;-82
2021/01/18 01:22:55;;;;;;;39.30;4.65;;;1.20;99.90;;;;;;5012137;28;20083;-82
2021/01/18 01:25:23;;;;;;;29.95;3.45;;;1.20;99.90;;;;;;5022912;28;20053;-82
2021/01/18 01:27:50;;;;;;;41.20;3.80;;;1.20;99.90;;;;;;5029782;28;20049;-82
2021/01/18 01:30:22;;;;;;;32.92;3.88;;;1.20;99.90;;;;;;5025971;28;20052;-80
2021/01/18 01:32:49;;;;;;;45.50;4.15;;;1.20;99.90;;;;;;5002808;28;20050;-81
2021/01/18 01:35:17;;;;;;;33.28;3.47;;;1.40;99.90;;;;;;5031750;28;20448;-82
2021/01/18 01:37:43;;;;;;;30.42;3.72;;;1.10;99.90;;;;;;5027619;28;20139;-81
2021/01/18 01:40:11;;;;;;;34.55;3.38;;;1.10;99.90;;;;;;5029363;28;20046;-78
2021/01/18 01:42:38;;;;;;;33.90;4.63;;;1.00;99.90;;;;;;5029357;28;20044;-81
2021/01/18 01:45:05;;;;;;;34.75;3.65;;;1.00;99.90;;;;;;5027634;28;20037;-81
2021/01/18 01:47:34;;;;;;;42.78;4.10;;;1.00;99.90;;;;;;5027890;28;20114;-83
2021/01/18 01:50:05;;;;;;;44.85;4.50;;;0.90;99.90;;;;;;5028808;28;20112;-82
2021/01/18 01:52:31;;;;;;;35.17;3.60;;;0.90;99.90;;;;;;5044929;28;20179;-81
2021/01/18 01:55:00;;;;;;;41.22;4.15;;;0.90;99.90;;;;;;5029403;28;20251;-82
2021/01/18 01:57:28;;;;;;;42.08;3.67;;;0.90;99.90;;;;;;5017421;28;20424;-81
2021/01/18 01:59:57;;;;;;;37.47;4.10;;;1.30;99.90;;;;;;5026653;28;20041;-81
2021/01/18 02:02:27;;;;;;;38.78;4.60;;;0.90;99.90;;;;;;5027295;28;20587;-82
2021/01/18 02:04:53;;;;;;;30.75;3.42;;;0.90;99.90;;;;;;5010308;28;20045;-82
2021/01/18 02:07:23;;;;;;;32.83;3.78;;;0.90;99.90;;;;;;5010717;28;20627;-81
2021/01/18 02:09:49;;;;;;;34.13;3.58;;;1.10;99.90;;;;;;5022683;28;20042;-81
2021/01/18 02:12:16;;;;;;;31.65;3.50;;;1.00;99.90;;;;;;5028387;28;20709;-82
2021/01/18 02:14:58;;;;;;;28.85;3.65;;;0.90;99.90;;;;;;5028976;28;20041;-81
2021/01/18 02:17:45;;;;;;;33.10;3.50;;;0.90;99.90;;;;;;5029125;28;20042;-82
2021/01/18 02:20:36;;;;;;;36.13;3.42;;;0.90;99.90;;;;;;5041113;28;20413;-83
2021/01/18 02:23:16;;;;;;;42.35;3.63;;;0.90;99.90;;;;;;5020857;28;20041;-80
2021/01/18 02:25:50;;;;;;;20.75;2.65;;;0.90;99.90;;;;;;5029264;28;20029;-82
2021/01/18 02:28:53;;;;;;;35.97;3.10;;;0.90;99.90;;;;;;5027280;28;20038;-82
2021/01/18 02:31:28;;;;;;;24.17;3.20;;;0.90;99.90;;;;;;4984123;28;20628;-82
2021/01/18 02:34:02;;;;;;;34.10;3.08;;;0.90;99.90;;;;;;4987398;28;20066;-81
2021/01/18 02:37:08;;;;;;;38.08;3.45;;;1.00;99.90;;;;;;4986014;28;20129;-81
2021/01/18 02:40:02;;;;;;;31.13;3.40;;;0.90;99.90;;;;;;4986471;28;20069;-82
2021/01/18 02:42:31;;;;;;;29.98;3.63;;;0.90;99.90;;;;;;4968634;28;20065;-81
2021/01/18 02:44:58;;;;;;;28.85;3.30;;;0.90;99.90;;;;;;4985626;28;20173;-82
2021/01/18 02:47:29;;;;;;;36.70;3.28;;;0.80;99.90;;;;;;4985826;28;20042;-81
2021/01/18 02:49:58;;;;;;;28.17;3.38;;;1.00;99.90;;;;;;4969611;28;20058;-80
2021/01/18 02:52:23;;;;;;;38.03;4.07;;;1.00;99.90;;;;;;4964336;28;20866;-83
2021/01/18 02:54:49;;;;;;;31.20;3.15;;;0.90;99.90;;;;;;4969736;28;20050;-81
2021/01/18 02:57:17;;;;;;;26.63;2.92;;;0.90;99.90;;;;;;4986673;28;20042;-82
2021/01/18 02:59:43;;;;;;;25.52;2.70;;;1.10;99.90;;;;;;4979368;28;20046;-81
2021/01/18 03:02:17;;;;;;;38.30;3.67;;;1.30;99.90;;;;;;4970251;28;20050;-80
2021/01/18 03:05:23;;;;;;;33.92;2.95;;;0.90;99.90;;;;;;4970148;28;20074;-81
2021/01/18 03:08:15;;;;;;;26.65;2.88;;;0.90;99.90;;;;;;4977099;28;20388;-80
2021/01/18 03:10:43;;;;;;;32.03;3.50;;;0.90;99.90;;;;;;5032233;28;20042;-81
2021/01/18 03:13:19;;;;;;;37.13;4.03;;;0.90;99.90;;;;;;5027535;28;20096;-82
2021/01/18 03:15:49;;;;;;;24.13;3.80;;;0.90;99.90;;;;;;5026041;28;20116;-83
2021/01/18 03:18:18;;;;;;;33.95;3.70;;;0.90;99.90;;;;;;5030879;28;20037;-81
2021/01/18 03:20:45;;;;;;;32.67;3.28;;;0.80;99.90;;;;;;5030189;28;20476;-81
2021/01/18 03:23:12;;;;;;;36.95;3.40;;;0.90;99.90;;;;;;5028612;28;20034;-79
2021/01/18 03:25:47;;;;;;;33.85;3.95;;;1.10;99.90;;;;;;5032178;28;20124;-81
2021/01/18 03:28:13;;;;;;;42.78;5.07;;;0.90;99.90;;;;;;5031958;28;20030;-81
2021/01/18 03:30:40;;;;;;;37.08;4.85;;;1.10;99.90;;;;;;5034317;28;20049;-81
2021/01/18 03:33:06;;;;;;;44.22;4.60;;;1.20;99.90;;;;;;5033016;28;20112;-83
2021/01/18 03:35:32;;;;;;;51.70;4.85;;;1.00;99.90;;;;;;5033734;28;20029;-82
2021/01/18 03:37:58;;;;;;;38.35;3.70;;;0.90;99.90;;;;;;5033416;28;20524;-81
2021/01/18 03:40:27;;;;;;;32.17;3.58;;;0.80;99.90;;;;;;5032777;28;20038;-81
2021/01/18 03:42:58;;;;;;;26.90;3.45;;;0.80;99.90;;;;;;5032567;28;20116;-80
2021/01/18 03:45:33;;;;;;;33.33;3.92;;;0.80;99.90;;;;;;5031050;28;20132;-81
2021/01/18 03:48:03;;;;;;;44.33;4.38;;;0.80;99.90;;;;;;5027289;28;20129;-82
2021/01/18 03:50:30;;;;;;;36.22;4.30;;;0.80;99.90;;;;;;5031461;28;20546;-81
2021/01/18 03:52:56;;;;;;;36.95;4.25;;;0.80;99.90;;;;;;5024420;28;20029;-82
2021/01/18 03:55:22;;;;;;;27.73;3.95;;;0.80;99.90;;;;;;5031465;28;20112;-81
2021/01/18 03:57:49;;;;;;;43.17;4.63;;;0.80;99.90;;;;;;5031620;28;20089;-82
2021/01/18 04:00:17;;;;;;;44.92;4.63;;;0.90;99.90;;;;;;5032206;28;20045;-84
2021/01/18 04:02:45;;;;;;;37.15;4.70;;;0.90;99.90;;;;;;5022861;28;20041;-83
2021/01/18 04:05:12;;;;;;;36.28;4.85;;;0.90;99.90;;;;;;5023707;28;20037;-81
2021/01/18 04:07:38;;;;;;;53.75;5.40;;;0.90;99.90;;;;;;5031553;28;20048;-82
2021/01/18 04:10:04;;;;;;;35.55;4.53;;;0.90;99.90;;;;;;5031961;28;20037;-83
2021/01/18 04:12:30;;;;;;;39.70;5.18;;;0.90;99.90;;;;;;5030508;28;20619;-81
2021/01/18 04:14:55;;;;;;;42.45;4.55;;;0.90;99.90;;;;;;5030992;28;20046;-81
2021/01/18 04:17:21;;;;;;;44.30;4.38;;;0.90;99.90;;;;;;5014859;28;20095;-83
2021/01/18 04:19:47;;;;;;;34.70;4.45;;;0.90;99.90;;;;;;5028280;28;20041;-81
2021/01/18 04:22:13;;;;;;;35.92;4.50;;;1.00;99.90;;;;;;5014108;28;20049;-83
2021/01/18 04:24:39;;;;;;;38.88;4.53;;;1.00;99.90;;;;;;5046263;28;20110;-81
2021/01/18 04:27:07;;;;;;;38.65;5.22;;;1.00;99.90;;;;;;5030698;28;20037;-83
2021/01/18 04:29:33;;;;;;;31.58;4.50;;;1.00;99.90;;;;;;5029197;28;20033;-80
2021/01/18 04:32:03;;;;;;;39.67;4.75;;;1.30;99.90;;;;;;5031129;28;20042;-83
2021/01/18 04:34:29;;;;;;;36.72;5.10;;;1.00;99.90;;;;;;5030693;28;20060;-80
2021/01/18 04:36:55;;;;;;;31.35;4.75;;;1.00;99.90;;;;;;5038738;28;20076;-80
2021/01/18 04:39:20;;;;;;;31.90;4.65;;;1.10;99.90;;;;;;5034392;28;20065;-80
2021/01/18 04:41:46;;;;;;;32.05;4.95;;;1.20;99.90;;;;;;5030981;28;20049;-82
2021/01/18 04:44:16;;;;;;;28.92;4.20;;;1.10;99.90;;;;;;5031331;28;20071;-82
2021/01/18 04:46:44;;;;;;;40.28;5.00;;;1.40;99.90;;;;;;5031107;28;20129;-83
2021/01/18 04:49:14;;;;;;;28.50;4.75;;;1.20;99.90;;;;;;5029709;28;20053;-82
2021/01/18 04:51:53;;;;;;;30.15;4.75;;;1.20;99.90;;;;;;5026950;28;20132;-81
2021/01/18 04:54:21;;;;;;;41.65;5.50;;;1.20;99.90;;;;;;5022059;28;20044;-82
2021/01/18 04:57:11;;;;;;;37.75;5.35;;;1.40;99.90;;;;;;5028924;28;20420;-83
2021/01/18 04:59:48;;;;;;;40.58;5.85;;;1.50;99.90;;;;;;5029417;28;20135;-81
2021/01/18 05:02:18;;;;;;;33.28;4.78;;;1.40;99.90;;;;;;5030652;28;20123;-83
2021/01/18 05:04:46;;;;;;;38.30;5.50;;;1.40;99.90;;;;;;5009775;28;20198;-81
2021/01/18 05:07:36;;;;;;;33.83;5.78;;;1.70;99.90;;;;;;5039195;28;20154;-81
2021/01/18 05:10:12;;;;;;;40.10;5.30;;;1.50;99.90;;;;;;5029907;28;20041;-80
2021/01/18 05:12:42;;;;;;;31.23;5.93;;;1.80;99.90;;;;;;5030730;28;20045;-80
2021/01/18 05:15:10;;;;;;;32.05;5.35;;;1.60;99.90;;;;;;5029584;28;20526;-82
2021/01/18 05:17:47;;;;;;;34.15;5.25;;;1.50;99.90;;;;;;5025334;28;20118;-82
2021/01/18 05:20:15;;;;;;;27.73;5.15;;;1.50;99.90;;;;;;5030202;28;20041;-83
2021/01/18 05:22:44;;;;;;;38.60;6.10;;;1.60;99.90;;;;;;5024222;28;20041;-82
2021/01/18 05:25:13;;;;;;;30.70;5.15;;;1.60;99.90;;;;;;5027752;28;20079;-82
2021/01/18 05:28:04;;;;;;;32.55;6.07;;;1.60;99.90;;;;;;5006741;28;20048;-81
2021/01/18 05:30:48;;;;;;;26.63;5.75;;;1.70;99.90;;;;;;5045216;28;20508;-83
2021/01/18 05:33:15;;;;;;;40.20;6.03;;;1.60;99.90;;;;;;5029739;28;20049;-81
2021/01/18 05:35:45;;;;;;;36.50;5.95;;;1.70;99.90;;;;;;5029949;28;20060;-82
2021/01/18 05:38:12;;;;;;;37.35;5.55;;;1.70;99.90;;;;;;5021650;28;20037;-81
2021/01/18 05:40:46;;;;;;;40.45;5.75;;;1.80;99.90;;;;;;5022521;28;20126;-80
2021/01/18 05:43:16;;;;;;;44.28;6.30;;;1.80;99.90;;;;;;5021743;28;20142;-82
2021/01/18 05:45:43;;;;;;;40.92;6.80;;;1.80;99.90;;;;;;5022368;28;20477;-79
2021/01/18 05:48:10;;;;;;;49.03;6.03;;;1.80;99.90;;;;;;5044302;28;20065;-79
2021/01/18 05:50:39;;;;;;;39.97;5.95;;;1.80;99.90;;;;;;5028016;28;20041;-82
2021/01/18 05:53:25;;;;;;;39.38;6.45;;;1.90;99.90;;;;;;5027513;28;20049;-81
2021/01/18 05:55:51;;;;;;;37.90;6.35;;;1.90;99.90;;;;;;5028278;28;20061;-80
2021/01/18 05:58:31;;;;;;;39.20;5.93;;;2.00;99.90;;;;;;5029434;28;20531;-83
2021/01/18 06:00:58;;;;;;;37.42;7.38;;;2.00;99.90;;;;;;5028775;28;20060;-81
2021/01/18 06:03:31;;;;;;;46.35;6.10;;;2.10;99.90;;;;;;5011263;28;20053;-81
2021/01/18 06:05:59;;;;;;;37.17;6.32;;;2.10;99.90;;;;;;5025933;28;20041;-81
2021/01/18 06:08:26;;;;;;;44.03;5.88;;;2.10;99.90;;;;;;5023652;28;20039;-81
2021/01/18 06:10:54;;;;;;;42.80;6.00;;;2.20;99.90;;;;;;5030345;28;20037;-79
2021/01/18 06:13:28;;;;;;;33.35;6.70;;;2.20;99.90;;;;;;5027035;28;20491;-80
2021/01/18 06:16:02;;;;;;;35.38;6.05;;;2.20;99.90;;;;;;5010667;28;20186;-80
2021/01/18 06:18:35;;;;;;;43.08;6.95;;;2.30;99.90;;;;;;5027056;28;20040;-78
2021/01/18 06:21:04;;;;;;;37.03;6.78;;;2.30;99.90;;;;;;5027005;28;20862;-78
2021/01/18 06:23:30;;;;;;;36.40;6.82;;;2.30;99.90;;;;;;5025254;28;20120;-80
2021/01/18 06:25:58;;;;;;;48.00;7.32;;;2.40;99.90;;;;;;5024817;28;20446;-81
2021/01/18 06:28:35;;;;;;;42.75;7.30;;;2.40;99.90;;;;;;5027757;28;20117;-80
2021/01/18 06:31:06;;;;;;;38.05;7.05;;;2.40;99.90;;;;;;5027047;28;20083;-79
2021/01/18 06:33:43;;;;;;;47.78;7.65;;;2.50;99.90;;;;;;5026934;28;20475;-80
2021/01/18 06:36:12;;;;;;;47.92;7.43;;;2.50;99.90;;;;;;5016172;28;20132;-79
2021/01/18 06:38:39;;;;;;;42.88;7.82;;;2.50;99.90;;;;;;5026207;28;20038;-80
2021/01/18 06:41:08;;;;;;;38.95;7.80;;;2.50;99.90;;;;;;5023932;28;20049;-80
2021/01/18 06:43:35;;;;;;;45.95;8.18;;;2.50;99.90;;;;;;5027492;28;20511;-80
2021/01/18 06:46:18;;;;;;;45.33;8.45;;;2.50;99.90;;;;;;5026879;28;20087;-81
2021/01/18 06:48:46;;;;;;;40.95;7.90;;;2.50;99.90;;;;;;5026163;28;20385;-79
2021/01/18 06:51:17;;;;;;;47.03;8.73;;;2.60;99.90;;;;;;5010310;28;20037;-80
2021/01/18 06:53:47;;;;;;;53.90;9.70;;;2.60;99.90;;;;;;5029675;28;20079;-79
2021/01/18 06:56:47;;;;;;;49.47;9.73;;;2.60;99.90;;;;;;5030730;28;20048;-81
2021/01/18 06:59:34;;;;;;;46.95;9.57;;;2.60;99.90;;;;;;5026689;28;20111;-80
2021/01/18 07:02:22;;;;;;;48.53;9.80;;;2.60;99.90;;;;;;5027231;28;20049;-81
2021/01/18 07:04:49;;;;;;;49.45;10.27;;;3.50;99.90;;;;;;5049713;28;20087;-81
2021/01/18 07:07:27;;;;;;;42.92;10.50;;;2.60;99.90;;;;;;5033078;28;20081;-82
2021/01/18 07:10:02;;;;;;;48.90;10.68;;;2.60;99.90;;;;;;5035207;28;20041;-81
2021/01/18 07:12:29;;;;;;;49.60;10.95;;;2.70;99.90;;;;;;5027961;28;20033;-80
2021/01/18 07:15:02;;;;;;;56.50;10.93;;;2.70;99.90;;;;;;5033586;28;20124;-81
2021/01/18 07:17:43;;;;;;;49.85;11.23;;;2.70;99.90;;;;;;5033940;28;20037;-78
2021/01/18 07:20:20;;;;;;;44.63;10.90;;;2.70;99.90;;;;;;5030602;28;20034;-81
2021/01/18 07:23:07;;;;;;;33.63;9.50;;;2.70;99.90;;;;;;5033341;28;20121;-80
2021/01/18 07:25:38;;;;;;;50.78;11.32;;;2.70;99.90;;;;;;5016492;28;20049;-81
2021/01/18 07:28:05;;;;;;;50.65;11.77;;;3.00;99.90;;;;;;5034283;28;20043;-82
2021/01/18 07:30:38;;;;;;;53.88;12.07;;;2.80;99.90;;;;;;5034508;28;20044;-80
2021/01/18 07:33:12;;;;;;;60.30;12.10;;;2.80;99.90;;;;;;5030989;28;20037;-79
2021/01/18 07:35:43;;;;;;;54.67;11.73;;;2.80;99.90;;;;;;5035029;28;20045;-80
2021/01/18 07:38:17;;;;;;;48.63;12.18;;;2.80;99.90;;;;;;5034042;28;20040;-80
2021/01/18 07:41:07;;;;;;;51.60;11.88;;;2.80;99.90;;;;;;5049635;28;20501;-78
2021/01/18 07:43:35;;;;;;;62.33;12.07;;;2.90;99.90;;;;;;5029331;28;20052;-81
2021/01/18 07:46:29;;;;;;;57.10;12.90;;;2.90;99.90;;;;;;5009844;28;20049;-76
2021/01/18 07:48:59;;;;;;;53.03;12.68;;;2.90;99.90;;;;;;5033675;28;20095;-80
2021/01/18 07:51:33;;;;;;;52.47;12.57;;;2.90;99.90;;;;;;5033655;28;20072;-80
2021/01/18 07:53:59;;;;;;;45.47;12.40;;;2.90;99.90;;;;;;5041866;28;20405;-79
2021/01/18 07:56:30;;;;;;;54.28;11.65;;;3.00;99.90;;;;;;4998964;28;20113;-81
2021/01/18 07:59:04;;;;;;;51.92;13.30;;;3.00;99.90;;;;;;5032301;28;20143;-81
2021/01/18 08:01:37;;;;;;;51.00;12.90;;;3.00;99.90;;;;;;5033581;28;20127;-83
2021/01/18 08:04:16;;;;;;;47.55;12.85;;;3.10;99.90;;;;;;5029147;28;20397;-83
2021/01/18 08:07:01;;;;;;;52.67;12.82;;;3.00;99.90;;;;;;5029749;28;20041;-84
2021/01/18 08:09:28;;;;;;;56.97;12.80;;;3.30;99.90;;;;;;5030640;28;20044;-83
2021/01/18 08:12:32;;;;;;;70.20;13.98;;;3.10;99.90;;;;;;5028166;28;20080;-83
2021/01/18 08:15:09;;;;;;;52.33;13.88;;;3.10;99.90;;;;;;5028859;28;20124;-82
2021/01/18 08:17:35;;;;;;;42.70;12.68;;;3.20;99.90;;;;;;5026734;28;20041;-82
2021/01/18 08:20:12;;;;;;;55.20;14.00;;;3.20;99.90;;;;;;5028909;28;20069;-82
2021/01/18 08:22:39;;;;;;;38.00;11.90;;;3.20;99.90;;;;;;5045874;28;20091;-81
2021/01/18 08:25:06;;;;;;;63.70;15.18;;;3.40;99.90;;;;;;5027324;28;20049;-82
2021/01/18 08:27:41;;;;;;;67.38;15.18;;;3.30;99.90;;;;;;5026433;28;20504;-82
2021/01/18 08:30:26;;;;;;;49.33;13.55;;;3.30;99.90;;;;;;5029699;28;20385;-84
2021/01/18 08:32:54;;;;;;;58.40;14.98;;;3.30;99.90;;;;;;5031213;28;20048;-81
2021/01/18 08:35:27;;;;;;;44.92;13.57;;;3.30;99.90;;;;;;5026226;28;20034;-82
2021/01/18 08:38:03;;;;;;;65.65;14.68;;;3.30;99.90;;;;;;5027333;28;20048;-84
2021/01/18 08:40:44;;;;;;;58.05;15.40;;;3.30;99.90;;;;;;5030392;28;20067;-83
2021/01/18 08:43:12;;;;;;;56.13;14.88;;;3.40;99.90;;;;;;5029950;28;20045;-83
2021/01/18 08:45:53;;;;;;;56.47;13.85;;;3.40;99.90;;;;;;5034162;28;20049;-83
2021/01/18 08:48:26;;;;;;;56.55;14.88;;;3.40;99.90;;;;;;5024236;28;20117;-83
2021/01/18 08:50:53;;;;;;;67.85;14.25;;;3.40;99.90;;;;;;5030132;28;20408;-83
2021/01/18 08:53:27;;;;;;;62.67;13.60;;;3.40;99.90;;;;;;5042599;28;20436;-84
2021/01/18 08:56:04;;;;;;;67.40;14.82;;;3.70;99.90;;;;;;5027027;28;20053;-84
2021/01/18 08:58:34;;;;;;;63.65;14.10;;;3.50;99.90;;;;;;4995933;28;20148;-84
2021/01/18 09:01:01;;;;;;;60.97;14.07;;;3.70;99.90;;;;;;5010443;28;20103;-83
2021/01/18 09:03:27;;;;;;;58.88;13.23;;;3.70;99.90;;;;;;4989664;28;20125;-84
2021/01/18 09:05:55;;;;;;;57.67;13.48;;;3.60;99.90;;;;;;4990256;28;20199;-83
2021/01/18 09:08:22;;;;;;;45.28;12.27;;;4.00;99.90;;;;;;5000374;28;20076;-83
2021/01/18 09:11:05;;;;;;;64.60;13.00;;;3.80;99.90;;;;;;4989611;28;20042;-81
2021/01/18 09:13:33;;;;;;;46.45;11.85;;;3.60;99.90;;;;;;5009490;28;20050;-83
2021/01/18 09:16:04;;;;;;;51.80;12.32;;;3.70;99.90;;;;;;5009783;28;20428;-85
2021/01/18 09:18:29;;;;;;;54.10;13.10;;;3.70;99.90;;;;;;5008968;28;20072;-84
2021/01/18 09:20:58;;;;;;;53.50;11.57;;;3.70;99.90;;;;;;5005753;28;20037;-84
2021/01/18 09:23:27;;;;;;;47.78;11.98;;;3.80;99.90;;;;;;5009593;28;20080;-86
2021/01/18 09:26:19;;;;;;;59.08;11.80;;;4.00;99.90;;;;;;4994747;28;20053;-83
2021/01/18 09:28:53;;;;;;;34.03;9.60;;;3.80;99.90;;;;;;4994781;28;20102;-83
2021/01/18 09:31:20;;;;;;;59.55;11.35;;;3.90;99.90;;;;;;5009289;28;20108;-84
2021/01/18 09:33:47;;;;;;;59.75;10.98;;;4.10;99.90;;;;;;4997515;28;20053;-84
2021/01/18 09:36:18;;;;;;;50.42;10.55;;;4.20;99.90;;;;;;4991196;28;20054;-84
2021/01/18 09:38:46;;;;;;;43.75;9.60;;;4.20;99.90;;;;;;5008204;28;20041;-85
2021/01/18 09:41:14;;;;;;;52.15;9.45;;;4.10;99.90;;;;;;4991856;28;20656;-83
2021/01/18 09:43:44;;;;;;;42.85;8.23;;;4.20;99.90;;;;;;5008276;28;20045;-80
2021/01/18 09:46:10;;;;;;;46.28;8.50;;;4.30;99.90;;;;;;5005051;28;20500;-81
2021/01/18 09:48:37;;;;;;;50.67;7.80;;;4.40;99.90;;;;;;5007606;28;20444;-81
2021/01/18 09:51:07;;;;;;;42.17;7.82;;;4.70;99.90;;;;;;5007751;28;20048;-82
2021/01/18 09:53:34;;;;;;;48.47;8.82;;;4.50;99.90;;;;;;5006243;28;20034;-79
2021/01/18 09:56:03;;;;;;;46.53;7.55;;;4.50;99.90;;;;;;5004276;28;20053;-81
2021/01/18 09:58:44;;;;;;;33.95;7.03;;;4.60;99.90;;;;;;5025486;28;20057;-82
2021/01/18 10:01:17;;;;;;;39.50;7.38;;;4.60;99.90;;;;;;5026178;28;20053;-84
2021/01/18 10:03:51;;;;;;;37.45;6.55;;;4.80;99.90;;;;;;5025845;28;20373;-82
2021/01/18 10:06:23;;;;;;;30.33;6.95;;;4.70;99.90;;;;;;5021441;28;20037;-79
2021/01/18 10:08:52;;;;;;;32.92;5.90;;;5.10;99.90;;;;;;5007388;28;20461;-82
2021/01/18 10:11:45;;;;;;;34.33;6.90;;;4.80;99.90;;;;;;5026651;28;20052;-82
2021/01/18 10:14:23;;;;;;;31.90;5.65;;;4.80;99.90;;;;;;5026851;28;20041;-81
2021/01/18 10:17:05;;;;;;;29.48;6.22;;;4.90;99.90;;;;;;5004135;28;20049;-81
2021/01/18 10:19:35;;;;;;;41.83;6.75;;;5.00;99.90;;;;;;5022973;28;20037;-82
2021/01/18 10:22:03;;;;;;;37.63;5.90;;;5.00;99.90;;;;;;5008665;28;20041;-81
2021/01/18 10:24:31;;;;;;;32.60;6.07;;;5.00;99.90;;;;;;5026174;28;20443;-81
2021/01/18 10:27:12;;;;;;;42.38;7.30;;;4.90;99.90;;;;;;5021113;28;20113;-82
2021/01/18 10:29:38;;;;;;;35.92;6.07;;;4.90;99.90;;;;;;5027072;28;20155;-81
2021/01/18 10:32:05;;;;;;;27.20;4.97;;;5.00;99.90;;;;;;5026546;28;20473;-82
2021/01/18 10:34:35;;;;;;;41.83;6.32;;;4.90;99.90;;;;;;5027941;28;20049;-82
2021/01/18 10:37:17;;;;;;;26.88;5.07;;;5.10;99.90;;;;;;5021588;28;20056;-81
2021/01/18 10:39:49;;;;;;;34.65;4.80;;;5.00;99.90;;;;;;5021574;28;20452;-81
2021/01/18 10:42:17;;;;;;;44.40;6.13;;;5.00;99.90;;;;;;5022562;28;20551;-82
2021/01/18 10:44:53;;;;;;;27.63;4.65;;;5.10;99.90;;;;;;5029489;28;20120;-82
2021/01/18 10:47:24;;;;;;;23.30;5.10;;;5.10;99.90;;;;;;5028845;28;20037;-82
2021/01/18 10:49:52;;;;;;;37.50;5.60;;;5.00;99.90;;;;;;5010288;28;20050;-82
2021/01/18 10:52:18;;;;;;;41.22;5.40;;;5.10;99.90;;;;;;5021927;28;20037;-82
2021/01/18 10:54:58;;;;;;;26.88;4.65;;;5.00;99.90;;;;;;5026536;28;20052;-82
2021/01/18 10:57:24;;;;;;;34.28;5.32;;;5.00;99.90;;;;;;5024731;28;20056;-82
2021/01/18 11:00:14;;;;;;;34.80;4.65;;;5.00;99.90;;;;;;5026439;28;20049;-81
2021/01/18 11:02:41;;;;;;;32.58;5.32;;;5.00;99.90;;;;;;5009068;28;20056;-80
2021/01/18 11:05:09;;;;;;;42.35;5.28;;;5.00;99.90;;;;;;5024438;28;20542;-81
2021/01/18 11:07:36;;;;;;;34.38;5.28;;;4.90;99.90;;;;;;5038106;28;20096;-83
2021/01/18 11:10:05;;;;;;;36.10;4.95;;;5.00;99.90;;;;;;5024368;28;20503;-82
2021/01/18 11:12:41;;;;;;;24.55;4.70;;;4.90;99.90;;;;;;5025105;28;20037;-82
2021/01/18 11:15:09;;;;;;;25.60;4.80;;;5.00;99.90;;;;;;5026787;28;20041;-82
2021/01/18 11:17:35;;;;;;;26.02;4.90;;;5.00;99.90;;;;;;5028046;28;20037;-82
2021/01/18 11:20:05;;;;;;;29.17;3.80;;;5.00;99.90;;;;;;5018513;28;20116;-82
2021/01/18 11:22:31;;;;;;;27.77;4.38;;;5.00;99.90;;;;;;5018346;28;20152;-83
2021/01/18 11:24:56;;;;;;;33.75;4.57;;;5.10;99.90;;;;;;5024497;28;20112;-82
2021/01/18 11:27:23;;;;;;;27.52;4.95;;;5.00;99.90;;;;;;5025359;28;20041;-82
2021/01/18 11:29:48;;;;;;;27.23;4.40;;;5.00;99.90;;;;;;5041868;28;20092;-82
2021/01/18 11:32:15;;;;;;;26.38;4.10;;;5.00;99.90;;;;;;5024539;28;20128;-81
2021/01/18 11:34:41;;;;;;;29.63;4.35;;;5.00;99.90;;;;;;5026664;28;20091;-83
2021/01/18 11:37:08;;;;;;;24.20;4.03;;;5.00;99.90;;;;;;5028884;28;20072;-83
2021/01/18 11:39:35;;;;;;;26.75;4.03;;;5.00;99.90;;;;;;5023545;28;20511;-84
2021/01/18 11:42:05;;;;;;;27.83;4.68;;;5.00;99.90;;;;;;5031070;28;20507;-81
2021/01/18 11:44:31;;;;;;;28.75;4.63;;;5.20;99.90;;;;;;5029357;28;20063;-82
2021/01/18 11:47:02;;;;;;;25.35;3.85;;;5.10;99.90;;;;;;5029138;28;20347;-82
2021/01/18 11:49:29;;;;;;;28.17;4.45;;;5.30;99.90;;;;;;5026873;28;20033;-82
2021/01/18 11:51:55;;;;;;;30.27;4.20;;;5.30;99.90;;;;;;5030287;28;20381;-83
2021/01/18 11:54:21;;;;;;;36.88;4.45;;;5.20;99.90;;;;;;5025027;28;20056;-80
2021/01/18 11:56:47;;;;;;;32.75;4.93;;;5.30;99.90;;;;;;5031359;28;20052;-81
2021/01/18 11:59:13;;;;;;;31.40;4.30;;;5.30;99.90;;;;;;5029602;28;20037;-81
2021/01/18 12:01:45;;;;;;;36.67;5.25;;;5.30;99.90;;;;;;5025205;28;20050;-82
2021/01/18 12:04:11;;;;;;;25.88;3.72;;;5.30;99.90;;;;;;5029187;28;20045;-83
2021/01/18 12:06:38;;;;;;;30.38;3.92;;;5.30;99.90;;;;;;5025026;28;20048;-81
2021/01/18 12:09:05;;;;;;;25.50;4.18;;;5.30;99.90;;;;;;5031097;28;20037;-81
2021/01/18 12:11:36;;;;;;;46.53;5.07;;;5.40;99.90;;;;;;5027225;28;20080;-82
2021/01/18 12:14:02;;;;;;;42.45;4.53;;;5.30;99.90;;;;;;5019382;28;20417;-81
2021/01/18 12:16:28;;;;;;;33.35;4.45;;;5.30;99.90;;;;;;5031172;28;20129;-82
2021/01/18 12:18:54;;;;;;;33.17;4.95;;;5.30;99.90;;;;;;5012770;28;20041;-81
2021/01/18 12:21:20;;;;;;;26.00;4.20;;;5.40;99.90;;;;;;5026175;28;20566;-81
2021/01/18 12:23:47;;;;;;;31.05;4.25;;;5.40;99.90;;;;;;5030781;28;20780;-84
2021/01/18 12:26:31;;;;;;;33.40;5.18;;;5.50;99.90;;;;;;5028944;28;20064;-80
2021/01/18 12:28:56;;;;;;;29.42;3.75;;;5.50;99.90;;;;;;5041184;28;20045;-83
2021/01/18 12:31:23;;;;;;;36.95;4.65;;;5.50;99.90;;;;;;5029364;28;20381;-80
2021/01/18 12:34:03;;;;;;;33.63;4.80;;;5.80;99.90;;;;;;5023798;28;20033;-81
2021/01/18 12:36:31;;;;;;;36.95;4.45;;;5.50;99.90;;;;;;5013194;28;20060;-83
2021/01/18 12:39:04;;;;;;;31.48;4.10;;;5.50;99.90;;;;;;5022823;28;20136;-82
2021/01/18 12:42:00;;;;;;;25.17;4.38;;;5.50;99.90;;;;;;5046690;28;20349;-83
2021/01/18 12:44:38;;;;;;;26.50;4.80;;;5.50;99.90;;;;;;4971361;28;20058;-82
2021/01/18 12:47:07;;;;;;;40.28;4.50;;;5.50;99.90;;;;;;5009718;28;20060;-82
2021/01/18 12:49:33;;;;;;;39.67;4.32;;;5.50;99.90;;;;;;4990396;28;20091;-80
2021/01/18 12:52:00;;;;;;;32.17;4.22;;;5.70;99.90;;;;;;4977578;28;20052;-81
2021/01/18 12:54:35;;;;;;;38.93;5.03;;;5.50;99.90;;;;;;4983207;28;20046;-81
2021/01/18 12:57:02;;;;;;;27.02;3.33;;;5.60;99.90;;;;;;5005413;28;20128;-81
2021/01/18 12:59:28;;;;;;;26.25;3.40;;;5.50;99.90;;;;;;4990944;28;20104;-80
2021/01/18 13:01:54;;;;;;;26.45;3.45;;;5.60;99.90;;;;;;5009073;28;20489;-82
2021/01/18 13:04:20;;;;;;;18.23;3.05;;;5.60;99.90;;;;;;5013083;28;20042;-80
2021/01/18 13:06:48;;;;;;;21.92;3.45;;;5.60;99.90;;;;;;5002064;28;20500;-81